createdAt,value
2022-10-19T00:00:48.662Z,99630.94
2022-10-19T00:01:50.424Z,99622.13
2022-10-19T00:02:52.387Z,99626.00
2022-10-19T00:03:56.013Z,99631.34
2022-10-19T00:04:57.740Z,99635.84
2022-10-19T00:06:00.489Z,99625.19
2022-10-19T00:07:02.206Z,99634.00
2022-10-19T00:08:04.240Z,99632.38
2022-10-19T00:09:18.995Z,99632.16
2022-10-19T00:10:20.759Z,99632.38
2022-10-19T00:11:23.755Z,99634.00
2022-10-19T00:12:25.730Z,99629.69
2022-10-19T00:13:27.606Z,99631.34
2022-10-19T00:14:29.454Z,99637.47
2022-10-19T00:15:31.174Z,99635.47
2022-10-19T00:16:38.166Z,99639.97
2022-10-19T00:17:40.020Z,99640.78
2022-10-19T00:18:43.720Z,99641.38
2022-10-19T00:19:45.444Z,99637.91
2022-10-19T00:20:47.192Z,99646.94
2022-10-19T00:22:56.024Z,99642.22
2022-10-19T00:23:57.835Z,99639.34
2022-10-19T00:24:59.534Z,99647.31
2022-10-19T00:26:01.573Z,99634.59
2022-10-19T00:27:03.407Z,99637.28
2022-10-19T00:28:05.135Z,99641.56
2022-10-19T00:29:07.820Z,99630.09
2022-10-19T00:30:09.892Z,99637.88
2022-10-19T00:31:16.306Z,99639.53
2022-10-19T00:32:18.054Z,99639.53
2022-10-19T00:33:22.347Z,99635.00
2022-10-19T00:34:24.860Z,99637.66
2022-10-19T00:35:27.261Z,99634.00
2022-10-19T00:36:36.309Z,99637.31
2022-10-19T00:37:38.062Z,99634.00
2022-10-19T00:38:42.246Z,99631.16
2022-10-19T00:39:44.043Z,99636.50
2022-10-19T00:40:46.905Z,99636.50
2022-10-19T00:41:48.926Z,99634.00
2022-10-19T00:42:56.197Z,99637.31
2022-10-19T00:44:27.378Z,99636.28
2022-10-19T00:45:29.084Z,99634.66
2022-10-19T00:46:36.551Z,99630.13
2022-10-19T00:47:39.026Z,99634.66
2022-10-19T00:48:40.782Z,99631.97
2022-10-19T00:49:45.498Z,99627.69
2022-10-19T00:50:50.942Z,99633.00
2022-10-19T00:51:58.327Z,99626.84
2022-10-19T00:53:00.423Z,99631.34
2022-10-19T00:54:05.746Z,99623.34
2022-10-19T00:55:10.116Z,99632.34
2022-10-19T00:56:15.802Z,99629.88
2022-10-19T00:57:18.007Z,99632.75
2022-10-19T00:58:19.868Z,99625.81
2022-10-19T00:59:25.074Z,99632.97
2022-10-19T01:00:27.357Z,99630.31
2022-10-19T01:01:29.771Z,99625.19
2022-10-19T01:02:31.916Z,99622.75
2022-10-19T01:03:34.534Z,99627.25
2022-10-19T01:04:42.078Z,99627.25
2022-10-19T01:05:43.928Z,99620.28
2022-10-19T01:06:45.998Z,99617.81
2022-10-19T01:07:47.757Z,99626.66
2022-10-19T01:08:49.503Z,99620.47
2022-10-19T01:09:51.743Z,99617.81
2022-10-19T01:11:23.552Z,99620.28
2022-10-19T01:12:58.756Z,99621.94
2022-10-19T01:14:24.964Z,99617.81
2022-10-19T01:15:46.925Z,99623.34
2022-10-19T01:17:05.108Z,99621.31
2022-10-19T01:18:25.611Z,99617.81
2022-10-19T01:20:09.976Z,99621.31
2022-10-19T01:21:26.236Z,99623.13
2022-10-19T01:23:17.043Z,99618.66
2022-10-19T01:25:04.347Z,99622.53
2022-10-19T01:26:45.261Z,99621.94
2022-10-19T01:28:30.358Z,99618.44
2022-10-19T01:29:50.824Z,99611.69
2022-10-19T01:31:07.363Z,99606.78
2022-10-19T01:32:35.590Z,99609.25
2022-10-19T01:33:59.724Z,99606.56
2022-10-19T01:35:20.082Z,99605.97
2022-10-19T01:36:35.555Z,99601.03
2022-10-19T01:37:55.818Z,99600.81
2022-10-19T01:39:18.878Z,99605.97
2022-10-19T01:40:39.251Z,99597.34
2022-10-19T01:42:12.958Z,99602.66
2022-10-19T01:43:40.393Z,99598.38
2022-10-19T01:45:19.544Z,99596.53
2022-10-19T01:46:47.003Z,99592.44
2022-10-19T01:48:01.175Z,99588.97
2022-10-19T01:49:20.227Z,99590.81
2022-10-19T01:50:34.081Z,99587.34
2022-10-19T01:51:45.583Z,99586.50
2022-10-19T01:52:51.570Z,99585.09
2022-10-19T01:53:58.577Z,99588.78
2022-10-19T01:55:03.178Z,99584.28
2022-10-19T01:56:06.815Z,99584.44
2022-10-19T01:57:13.967Z,99583.25
2022-10-19T01:58:23.555Z,99571.78
2022-10-19T01:59:27.138Z,99575.47
2022-10-19T02:00:32.274Z,99569.13
2022-10-19T02:01:38.605Z,99567.47
2022-10-19T02:02:48.242Z,99567.47
2022-10-19T02:03:52.685Z,99567.88
2022-10-19T02:04:57.495Z,99566.03
2022-10-19T02:06:02.062Z,99566.25
2022-10-19T02:07:07.489Z,99565.41
2022-10-19T02:08:25.450Z,99570.75
2022-10-19T02:09:27.245Z,99561.34
2022-10-19T02:10:33.643Z,99557.03
2022-10-19T02:11:41.256Z,99558.06
2022-10-19T02:12:44.625Z,99556.44
2022-10-19T02:13:54.299Z,99560.09
2022-10-19T02:15:01.065Z,99561.94
2022-10-19T02:16:09.408Z,99560.50
2022-10-19T02:17:23.967Z,99563.78
2022-10-19T02:18:32.875Z,99561.13
2022-10-19T02:19:35.456Z,99561.53
2022-10-19T02:20:37.547Z,99558.06
2022-10-19T02:21:39.937Z,99563.38
2022-10-19T02:22:42.194Z,99564.19
2022-10-19T02:23:44.510Z,99557.25
2022-10-19T02:24:46.217Z,99560.94
2022-10-19T02:25:48.214Z,99561.16
2022-10-19T02:26:50.195Z,99562.16
2022-10-19T02:27:52.080Z,99564.84
2022-10-19T02:28:56.316Z,99556.03
2022-10-19T02:29:58.212Z,99556.84
2022-10-19T02:31:00.815Z,99562.16
2022-10-19T02:32:04.146Z,99551.53
2022-10-19T02:33:06.149Z,99554.19
2022-10-19T02:34:09.186Z,99561.34
2022-10-19T02:35:14.464Z,99562.16
2022-10-19T02:36:16.353Z,99552.72
2022-10-19T02:37:20.944Z,99560.72
2022-10-19T02:38:26.810Z,99560.94
2022-10-19T02:39:29.051Z,99552.94
2022-10-19T02:40:39.536Z,99552.72
2022-10-19T02:42:10.209Z,99554.19
2022-10-19T02:43:19.197Z,99551.09
2022-10-19T02:44:38.549Z,99557.44
2022-10-19T02:46:18.611Z,99548.66
2022-10-19T02:47:29.260Z,99550.69
2022-10-19T02:48:35.882Z,99548.47
2022-10-19T02:49:39.215Z,99543.13
2022-10-19T02:50:51.961Z,99547.44
2022-10-19T02:52:11.142Z,99544.78
2022-10-19T02:53:13.355Z,99542.72
2022-10-19T02:54:15.072Z,99540.88
2022-10-19T02:55:16.910Z,99544.56
2022-10-19T02:56:18.611Z,99546.41
2022-10-19T02:57:25.865Z,99543.53
2022-10-19T02:58:27.568Z,99538.63
2022-10-19T02:59:30.039Z,99546.59
2022-10-19T03:00:31.767Z,99538.00
2022-10-19T03:01:33.478Z,99540.69
2022-10-19T03:02:35.639Z,99531.06
2022-10-19T03:03:37.344Z,99541.50
2022-10-19T03:04:39.269Z,99534.53
2022-10-19T03:05:40.993Z,99536.16
2022-10-19T03:06:43.441Z,99540.06
2022-10-19T03:07:45.291Z,99544.38
2022-10-19T03:08:47.009Z,99539.25
2022-10-19T03:09:49.890Z,99541.69
2022-10-19T03:10:51.674Z,99536.38
2022-10-19T03:11:55.752Z,99532.91
2022-10-19T03:12:58.543Z,99540.88
2022-10-19T03:14:00.288Z,99534.75
2022-10-19T03:15:01.977Z,99541.09
2022-10-19T03:16:10.151Z,99527.78
2022-10-19T03:17:12.046Z,99535.78
2022-10-19T03:18:13.746Z,99538.44
2022-10-19T03:19:15.509Z,99530.66
2022-10-19T03:20:17.316Z,99530.44
2022-10-19T03:21:19.907Z,99528.00
2022-10-19T03:22:21.648Z,99522.69
2022-10-19T03:23:23.347Z,99528.19
2022-10-19T03:24:25.229Z,99524.53
2022-10-19T03:25:27.167Z,99526.34
2022-10-19T03:26:28.968Z,99527.38
2022-10-19T03:27:30.837Z,99529.22
2022-10-19T03:28:33.176Z,99529.41
2022-10-19T03:29:34.903Z,99528.59
2022-10-19T03:30:36.593Z,99529.41
2022-10-19T03:31:38.360Z,99530.22
2022-10-19T03:32:40.104Z,99520.00
2022-10-19T03:33:41.890Z,99525.94
2022-10-19T03:34:43.651Z,99526.97
2022-10-19T03:35:45.520Z,99520.63
2022-10-19T03:36:47.522Z,99520.81
2022-10-19T03:37:49.221Z,99522.88
2022-10-19T03:38:56.848Z,99528.19
2022-10-19T03:39:58.678Z,99524.94
2022-10-19T03:41:00.374Z,99526.91
2022-10-19T03:42:02.099Z,99526.31
2022-10-19T03:43:03.914Z,99531.03
2022-10-19T03:44:08.038Z,99522.44
2022-10-19T03:45:10.276Z,99530.63
2022-10-19T03:46:12.026Z,99528.16
2022-10-19T03:47:13.736Z,99520.38
2022-10-19T03:48:15.419Z,99521.59
2022-10-19T03:49:17.272Z,99529.78
2022-10-19T03:50:19.077Z,99520.38
2022-10-19T03:51:34.820Z,99524.06
2022-10-19T03:52:36.530Z,99522.81
2022-10-19T03:53:40.484Z,99529.97
2022-10-19T03:54:42.270Z,99522.41
2022-10-19T03:55:43.989Z,99523.63
2022-10-19T03:56:45.836Z,99527.31
2022-10-19T03:57:47.527Z,99530.19
2022-10-19T03:58:51.159Z,99525.25
2022-10-19T03:59:52.867Z,99533.44
2022-10-19T04:00:54.591Z,99533.84
2022-10-19T04:01:56.318Z,99539.97
2022-10-19T04:02:58.025Z,99539.16
2022-10-19T04:04:09.512Z,99537.31
2022-10-19T04:05:11.263Z,99541.22
2022-10-19T04:06:21.343Z,99541.22
2022-10-19T04:07:23.856Z,99537.09
2022-10-19T04:08:25.569Z,99540.16
2022-10-19T04:09:27.330Z,99537.50
2022-10-19T04:10:31.347Z,99534.63
2022-10-19T04:11:35.308Z,99531.56
2022-10-19T04:12:37.086Z,99538.53
2022-10-19T04:13:39.255Z,99531.56
2022-10-19T04:14:56.351Z,99528.09
2022-10-19T04:15:59.505Z,99531.78
2022-10-19T04:17:02.681Z,99524.63
2022-10-19T04:18:04.507Z,99524.63
2022-10-19T04:19:06.312Z,99523.81
2022-10-19T04:20:08.910Z,99532.41
2022-10-19T04:21:31.465Z,99525.84
2022-10-19T04:22:33.217Z,99531.38
2022-10-19T04:23:36.774Z,99530.34
2022-10-19T04:24:38.492Z,99527.06
2022-10-19T04:25:40.238Z,99527.06
2022-10-19T04:26:49.066Z,99527.91
2022-10-19T04:27:50.774Z,99531.56
2022-10-19T04:28:52.899Z,99529.13
2022-10-19T04:29:54.703Z,99530.97
2022-10-19T04:30:57.036Z,99532.81
2022-10-19T04:31:59.275Z,99531.16
2022-10-19T04:33:00.981Z,99539.97
2022-10-19T04:34:02.777Z,99539.16
2022-10-19T04:35:05.164Z,99542.41
2022-10-19T04:36:10.379Z,99541.59
2022-10-19T04:37:12.077Z,99543.44
2022-10-19T04:38:14.088Z,99547.94
2022-10-19T04:39:15.915Z,99547.94
2022-10-19T04:40:17.724Z,99549.78
2022-10-19T04:41:22.223Z,99549.56
2022-10-19T04:42:23.972Z,99545.88
2022-10-19T04:43:25.702Z,99549.56
2022-10-19T04:44:27.427Z,99549.38
2022-10-19T04:45:29.291Z,99551.00
2022-10-19T04:46:31.202Z,99548.13
2022-10-19T04:47:33.360Z,99549.97
2022-10-19T04:48:38.544Z,99550.59
2022-10-19T04:49:40.272Z,99552.22
2022-10-19T04:50:42.000Z,99549.41
2022-10-19T04:51:43.715Z,99555.69
2022-10-19T04:52:45.813Z,99553.91
2022-10-19T04:53:48.136Z,99553.69
2022-10-19T04:54:49.855Z,99553.03
2022-10-19T04:55:51.726Z,99553.91
2022-10-19T04:56:53.834Z,99548.56
2022-10-19T04:57:55.657Z,99553.91
2022-10-19T04:58:59.939Z,99551.03
2022-10-19T05:00:02.103Z,99552.06
2022-10-19T05:01:13.507Z,99552.66
2022-10-19T05:02:15.264Z,99555.69
2022-10-19T05:03:17.655Z,99551.41
2022-10-19T05:04:19.342Z,99556.72
2022-10-19T05:05:21.143Z,99560.63
2022-10-19T05:06:24.030Z,99553.66
2022-10-19T05:07:25.774Z,99551.00
2022-10-19T05:08:27.505Z,99547.53
2022-10-19T05:09:29.224Z,99552.03
2022-10-19T05:10:31.303Z,99554.69
2022-10-19T05:11:33.024Z,99550.19
2022-10-19T05:12:36.191Z,99552.84
2022-10-19T05:13:38.668Z,99555.50
2022-10-19T05:14:42.725Z,99552.84
2022-10-19T05:15:55.419Z,99552.63
2022-10-19T05:16:57.158Z,99550.38
2022-10-19T05:17:58.999Z,99554.69
2022-10-19T05:19:01.555Z,99546.72
2022-10-19T05:20:03.648Z,99544.25
2022-10-19T05:21:13.651Z,99549.38
2022-10-19T05:22:15.392Z,99546.09
2022-10-19T05:23:17.489Z,99545.06
2022-10-19T05:24:19.199Z,99548.75
2022-10-19T05:25:20.913Z,99547.94
2022-10-19T05:26:26.670Z,99541.59
2022-10-19T05:27:28.443Z,99538.31
2022-10-19T05:28:30.714Z,99536.50
2022-10-19T05:29:33.821Z,99535.66
2022-10-19T05:30:35.690Z,99528.50
2022-10-19T05:31:37.471Z,99533.81
2022-10-19T05:32:39.171Z,99533.00
2022-10-19T05:33:42.864Z,99530.16
2022-10-19T05:34:44.578Z,99532.00
2022-10-19T05:35:46.301Z,99522.38
2022-10-19T05:36:48.057Z,99523.41
2022-10-19T05:37:55.194Z,99520.34
2022-10-19T05:38:58.239Z,99524.00
2022-10-19T05:39:59.955Z,99527.88
2022-10-19T05:41:01.670Z,99521.56
2022-10-19T05:42:03.659Z,99519.91
2022-10-19T05:43:05.340Z,99526.06
2022-10-19T05:44:07.277Z,99526.06
2022-10-19T05:45:09.588Z,99518.09
2022-10-19T05:46:18.124Z,99526.06
2022-10-19T05:47:19.861Z,99525.22
2022-10-19T05:48:21.589Z,99528.06
2022-10-19T05:49:23.610Z,99529.72
2022-10-19T05:50:25.382Z,99527.06
2022-10-19T05:51:28.747Z,99529.91
2022-10-19T05:52:30.530Z,99519.50
2022-10-19T05:53:34.306Z,99517.66
2022-10-19T05:54:37.355Z,99525.63
2022-10-19T05:55:39.067Z,99525.63
2022-10-19T05:56:42.238Z,99531.75
2022-10-19T05:57:43.973Z,99528.47
2022-10-19T05:58:46.312Z,99530.94
2022-10-19T05:59:48.023Z,99531.75
2022-10-19T06:00:58.969Z,99531.75
2022-10-19T06:02:00.809Z,99541.56
2022-10-19T06:03:02.570Z,99537.88
2022-10-19T06:04:04.534Z,99537.06
2022-10-19T06:05:07.169Z,99535.22
2022-10-19T06:06:09.930Z,99529.09
2022-10-19T06:07:11.641Z,99528.28
2022-10-19T06:08:13.403Z,99524.38
2022-10-19T06:09:15.143Z,99523.78
2022-10-19T06:10:17.495Z,99521.13
2022-10-19T06:11:26.875Z,99528.88
2022-10-19T06:12:28.605Z,99521.13
2022-10-19T06:13:30.319Z,99529.31
2022-10-19T06:14:32.058Z,99527.25
2022-10-19T06:15:39.924Z,99529.91
2022-10-19T06:16:42.321Z,99525.41
2022-10-19T06:17:44.016Z,99525.41
2022-10-19T06:18:46.327Z,99521.94
2022-10-19T06:19:48.040Z,99518.47
2022-10-19T06:20:49.747Z,99518.25
2022-10-19T06:21:51.489Z,99530.72
2022-10-19T06:22:53.219Z,99520.09
2022-10-19T06:23:58.944Z,99524.59
2022-10-19T06:25:00.680Z,99527.25
2022-10-19T06:26:08.756Z,99531.75
2022-10-19T06:27:10.533Z,99530.94
2022-10-19T06:28:12.534Z,99526.44
2022-10-19T06:29:14.317Z,99536.47
2022-10-19T06:30:16.117Z,99537.88
2022-10-19T06:31:18.396Z,99540.53
2022-10-19T06:32:20.521Z,99538.69
2022-10-19T06:33:22.221Z,99539.72
2022-10-19T06:34:24.064Z,99540.53
2022-10-19T06:35:25.912Z,99540.53
2022-10-19T06:36:30.536Z,99545.66
2022-10-19T06:37:32.824Z,99545.03
2022-10-19T06:38:35.064Z,99541.34
2022-10-19T06:39:36.815Z,99546.69
2022-10-19T06:40:38.527Z,99543.19
2022-10-19T06:41:40.237Z,99543.19
2022-10-19T06:42:41.942Z,99546.47
2022-10-19T06:43:44.399Z,99545.66
2022-10-19T06:44:46.218Z,99544.84
2022-10-19T06:45:47.931Z,99550.16
2022-10-19T06:46:49.642Z,99552.63
2022-10-19T06:47:51.550Z,99545.66
2022-10-19T06:48:56.725Z,99547.13
2022-10-19T06:49:58.463Z,99553.25
2022-10-19T06:51:06.161Z,99548.75
2022-10-19T06:52:08.285Z,99550.59
2022-10-19T06:53:10.122Z,99546.91
2022-10-19T06:54:11.856Z,99543.44
2022-10-19T06:55:13.780Z,99549.56
2022-10-19T06:56:15.961Z,99547.94
2022-10-19T06:57:17.669Z,99551.22
2022-10-19T06:58:19.646Z,99545.88
2022-10-19T06:59:21.393Z,99550.19
2022-10-19T07:00:23.159Z,99558.16
2022-10-19T07:01:25.844Z,99552.84
2022-10-19T07:02:27.618Z,99553.47
2022-10-19T07:03:30.103Z,99555.28
2022-10-19T07:04:31.873Z,99550.78
2022-10-19T07:05:33.630Z,99555.91
2022-10-19T07:06:35.346Z,99556.94
2022-10-19T07:07:37.407Z,99560.41
2022-10-19T07:08:42.007Z,99560.03
2022-10-19T07:09:43.772Z,99566.97
2022-10-19T07:10:51.576Z,99565.97
2022-10-19T07:11:53.308Z,99569.44
2022-10-19T07:12:56.670Z,99564.94
2022-10-19T07:13:58.418Z,99565.97
2022-10-19T07:15:00.171Z,99572.91
2022-10-19T07:16:19.739Z,99563.69
2022-10-19T07:17:23.099Z,99565.53
2022-10-19T07:18:25.835Z,99566.38
2022-10-19T07:19:27.627Z,99569.84
2022-10-19T07:20:29.356Z,99571.69
2022-10-19T07:21:31.108Z,99565.53
2022-10-19T07:22:32.874Z,99566.16
2022-10-19T07:23:37.569Z,99565.13
2022-10-19T07:24:39.259Z,99565.13
2022-10-19T07:25:40.975Z,99566.97
2022-10-19T07:26:42.762Z,99574.75
2022-10-19T07:27:44.532Z,99569.25
2022-10-19T07:28:48.238Z,99572.72
2022-10-19T07:29:50.218Z,99576.22
2022-10-19T07:30:51.946Z,99577.03
2022-10-19T07:31:53.719Z,99571.72
2022-10-19T07:32:55.460Z,99580.50
2022-10-19T07:34:01.207Z,99580.28
2022-10-19T07:35:03.083Z,99576.00
2022-10-19T07:36:08.681Z,99580.28
2022-10-19T07:37:10.460Z,99579.47
2022-10-19T07:38:12.246Z,99570.69
2022-10-19T07:39:16.958Z,99574.97
2022-10-19T07:40:18.660Z,99579.06
2022-10-19T07:41:24.541Z,99569.47
2022-10-19T07:42:30.314Z,99578.25
2022-10-19T07:43:32.840Z,99574.56
2022-10-19T07:44:34.616Z,99580.50
2022-10-19T07:45:36.355Z,99573.34
2022-10-19T07:46:39.345Z,99585.81
2022-10-19T07:47:41.107Z,99574.81
2022-10-19T07:48:44.350Z,99580.13
2022-10-19T07:49:46.101Z,99579.91
2022-10-19T07:50:48.957Z,99584.19
2022-10-19T07:51:53.958Z,99584.81
2022-10-19T07:52:55.835Z,99580.31
2022-10-19T07:54:00.361Z,99586.25
2022-10-19T07:55:02.244Z,99585.22
2022-10-19T07:56:11.103Z,99589.34
2022-10-19T07:57:12.904Z,99593.03
2022-10-19T07:58:14.627Z,99594.66
2022-10-19T07:59:17.244Z,99586.47
2022-10-19T08:00:19.090Z,99592.41
2022-10-19T08:01:24.254Z,99587.91
2022-10-19T08:02:30.875Z,99584.22
2022-10-19T08:04:42.715Z,99586.66
2022-10-19T08:05:07.884Z,99580.97
2022-10-19T08:06:17.646Z,99578.13
2022-10-19T08:07:19.361Z,99581.63
2022-10-19T08:08:21.076Z,99577.09
2022-10-19T08:09:51.080Z,99577.94
2022-10-19T08:10:44.513Z,99582.22
2022-10-19T08:11:46.219Z,99577.50
2022-10-19T08:12:47.925Z,99579.16
2022-10-19T08:13:50.245Z,99576.47
2022-10-19T08:14:54.352Z,99575.25
2022-10-19T08:15:56.058Z,99569.94
2022-10-19T08:16:57.981Z,99565.25
2022-10-19T08:18:00.762Z,99573.03
2022-10-19T08:19:10.068Z,99569.13
2022-10-19T08:20:11.910Z,99570.75
2022-10-19T08:21:13.631Z,99568.72
2022-10-19T08:22:15.456Z,99568.72
2022-10-19T08:23:17.220Z,99565.84
2022-10-19T08:24:20.414Z,99565.66
2022-10-19T08:25:22.158Z,99576.09
2022-10-19T08:26:24.374Z,99573.22
2022-10-19T08:27:26.636Z,99570.34
2022-10-19T08:28:28.401Z,99572.81
2022-10-19T08:29:31.554Z,99566.47
2022-10-19T08:30:37.044Z,99576.50
2022-10-19T08:31:39.871Z,99571.19
2022-10-19T08:32:41.937Z,99572.00
2022-10-19T08:33:44.463Z,99569.94
2022-10-19T08:34:46.292Z,99566.03
2022-10-19T08:35:48.000Z,99561.31
2022-10-19T08:36:49.725Z,99565.63
2022-10-19T08:37:51.897Z,99559.28
2022-10-19T08:38:53.807Z,99561.75
2022-10-19T08:39:55.525Z,99563.19
2022-10-19T08:41:04.170Z,99567.28
2022-10-19T08:42:19.270Z,99557.22
2022-10-19T08:43:36.769Z,99573.63
2022-10-19T08:45:13.933Z,99560.91
2022-10-19T08:46:39.105Z,99555.97
2022-10-19T08:48:30.265Z,99566.03
2022-10-19T08:49:32.927Z,99567.84
2022-10-19T08:50:41.201Z,99565.81
2022-10-19T08:51:46.762Z,99566.63
2022-10-19T08:53:01.405Z,99565.41
2022-10-19T08:54:12.108Z,99572.34
2022-10-19T08:55:20.607Z,99566.59
2022-10-19T08:56:51.569Z,99563.94
2022-10-19T08:58:44.765Z,99569.47
2022-10-19T09:00:06.141Z,99571.31
2022-10-19T09:01:37.645Z,99573.16
2022-10-19T09:03:37.827Z,99564.97
2022-10-19T09:05:03.451Z,99570.50
2022-10-19T09:06:28.348Z,99565.41
2022-10-19T09:07:44.986Z,99563.72
2022-10-19T09:08:48.299Z,99571.72
2022-10-19T09:10:04.341Z,99562.50
2022-10-19T09:11:10.303Z,99560.06
2022-10-19T09:12:19.512Z,99562.50
2022-10-19T09:14:04.109Z,99560.47
2022-10-19T09:15:17.820Z,99552.69
2022-10-19T09:16:21.043Z,99550.00
2022-10-19T09:17:24.802Z,99558.00
2022-10-19T09:18:31.485Z,99553.50
2022-10-19T09:19:33.531Z,99563.34
2022-10-19T09:20:41.198Z,99553.28
2022-10-19T09:21:55.414Z,99549.59
2022-10-19T09:23:21.201Z,99554.69
2022-10-19T09:24:50.753Z,99552.84
2022-10-19T09:25:53.725Z,99552.25
2022-10-19T09:27:01.599Z,99557.16
2022-10-19T09:28:43.019Z,99557.75
2022-10-19T09:29:55.216Z,99558.78
2022-10-19T09:30:59.527Z,99553.47
2022-10-19T09:32:11.234Z,99554.91
2022-10-19T09:33:28.377Z,99556.38
2022-10-19T09:34:46.247Z,99556.16
2022-10-19T09:35:48.652Z,99551.03
2022-10-19T09:36:59.376Z,99556.75
2022-10-19T09:38:04.674Z,99545.28
2022-10-19T09:39:06.451Z,99553.06
2022-10-19T09:40:21.677Z,99545.66
2022-10-19T09:41:24.358Z,99551.00
2022-10-19T09:42:33.613Z,99560.44
2022-10-19T09:43:35.756Z,99550.59
2022-10-19T09:44:37.567Z,99551.41
2022-10-19T09:46:19.795Z,99543.59
2022-10-19T09:47:35.557Z,99544.19
2022-10-19T09:48:52.870Z,99550.16
2022-10-19T09:50:19.163Z,99543.56
2022-10-19T09:51:21.635Z,99549.72
2022-10-19T09:52:31.187Z,99545.38
2022-10-19T09:53:33.000Z,99545.78
2022-10-19T09:54:39.099Z,99541.22
2022-10-19T09:56:56.090Z,99554.31
2022-10-19T09:58:20.427Z,99544.44
2022-10-19T09:59:28.757Z,99544.00
2022-10-19T10:00:45.032Z,99540.06
2022-10-19T10:01:46.822Z,99541.03
2022-10-19T10:02:54.682Z,99540.19
2022-10-19T10:04:17.202Z,99540.78
2022-10-19T10:05:20.506Z,99541.97
2022-10-19T10:06:22.618Z,99534.53
2022-10-19T10:07:33.974Z,99533.63
2022-10-19T10:08:58.951Z,99536.78
2022-10-19T10:10:01.030Z,99533.22
2022-10-19T10:11:06.961Z,99530.75
2022-10-19T10:12:09.621Z,99531.69
2022-10-19T10:13:21.082Z,99528.31
2022-10-19T10:14:41.872Z,99533.41
2022-10-19T10:15:49.493Z,99523.84
2022-10-19T10:17:07.926Z,99525.78
2022-10-19T10:18:17.062Z,99532.28
2022-10-19T10:19:19.166Z,99529.63
2022-10-19T10:20:32.189Z,99525.59
2022-10-19T10:21:46.108Z,99523.22
2022-10-19T10:23:03.324Z,99526.59
2022-10-19T10:24:05.854Z,99528.03
2022-10-19T10:25:18.362Z,99529.47
2022-10-19T10:26:20.428Z,99523.06
2022-10-19T10:27:40.585Z,99523.81
2022-10-19T10:28:50.295Z,99522.53
2022-10-19T10:31:07.960Z,99512.78
2022-10-19T10:32:19.424Z,99515.72
2022-10-19T10:33:40.430Z,99517.75
2022-10-19T10:35:01.628Z,99508.44
2022-10-19T10:36:13.227Z,99505.63
2022-10-19T10:37:28.122Z,99499.06
2022-10-19T10:38:50.140Z,99502.97
2022-10-19T10:39:57.676Z,99505.25
2022-10-19T10:41:14.795Z,99497.59
2022-10-19T10:42:26.623Z,99497.31
2022-10-19T10:43:33.583Z,99496.28
2022-10-19T10:44:36.687Z,99498.94
2022-10-19T10:45:42.892Z,99492.75
2022-10-19T10:47:00.467Z,99493.47
2022-10-19T10:48:42.843Z,99487.72
2022-10-19T10:49:55.431Z,99482.78
2022-10-19T10:51:00.702Z,99485.03
2022-10-19T10:52:09.678Z,99485.28
2022-10-19T10:53:33.156Z,99480.34
2022-10-19T10:54:35.140Z,99481.44
2022-10-19T10:55:36.851Z,99469.00
2022-10-19T10:56:40.964Z,99478.78
2022-10-19T10:57:49.746Z,99469.03
2022-10-19T10:59:00.660Z,99478.00
2022-10-19T11:00:20.123Z,99473.59
2022-10-19T11:01:33.485Z,99473.78
2022-10-19T11:03:12.141Z,99468.50
2022-10-19T11:04:25.275Z,99469.59
2022-10-19T11:05:30.447Z,99468.19
2022-10-19T11:06:43.671Z,99467.03
2022-10-19T11:07:54.940Z,99469.53
2022-10-19T11:09:11.585Z,99462.53
2022-10-19T11:10:41.255Z,99452.13
2022-10-19T11:11:47.546Z,99458.69
2022-10-19T11:13:25.921Z,99459.88
2022-10-19T11:14:51.014Z,99456.91
2022-10-19T11:15:57.130Z,99454.50
2022-10-19T11:17:06.849Z,99459.38
2022-10-19T11:18:32.211Z,99456.06
2022-10-19T11:19:43.006Z,99453.00
2022-10-19T11:21:12.091Z,99451.00
2022-10-19T11:22:28.212Z,99448.78
2022-10-19T11:23:45.791Z,99443.28
2022-10-19T11:24:54.013Z,99442.88
2022-10-19T11:26:17.611Z,99441.41
2022-10-19T11:27:51.503Z,99440.19
2022-10-19T11:29:30.761Z,99439.41
2022-10-19T11:30:55.355Z,99440.31
2022-10-19T11:31:57.981Z,99441.50
2022-10-19T11:33:28.241Z,99441.66
2022-10-19T11:34:52.924Z,99431.69
2022-10-19T11:36:02.007Z,99436.53
2022-10-19T11:37:20.958Z,99431.38
2022-10-19T11:38:43.425Z,99426.56
2022-10-19T11:39:50.838Z,99426.25
2022-10-19T11:41:17.486Z,99423.88
2022-10-19T11:42:50.611Z,99418.25
2022-10-19T11:44:13.415Z,99418.50
2022-10-19T11:45:30.953Z,99415.75
2022-10-19T11:46:59.996Z,99408.19
2022-10-19T11:48:20.482Z,99404.41
2022-10-19T11:49:24.986Z,99406.47
2022-10-19T11:51:21.896Z,99401.91
2022-10-19T11:52:46.492Z,99402.41
2022-10-19T11:54:30.418Z,99400.88
2022-10-19T11:55:56.825Z,99388.41
2022-10-19T11:57:11.786Z,99388.25
2022-10-19T11:58:57.499Z,99385.66
2022-10-19T12:00:14.106Z,99387.53
2022-10-19T12:01:48.117Z,99384.28
2022-10-19T12:03:05.834Z,99381.00
2022-10-19T12:04:23.216Z,99377.69
2022-10-19T12:06:10.877Z,99373.59
2022-10-19T12:07:30.846Z,99375.38
2022-10-19T12:09:10.561Z,99368.50
2022-10-19T12:10:36.506Z,99366.19
2022-10-19T12:12:25.241Z,99368.69
2022-10-19T12:13:49.027Z,99364.28
2022-10-19T12:15:12.881Z,99361.19
2022-10-19T12:16:17.212Z,99354.84
2022-10-19T12:17:32.974Z,99354.81
2022-10-19T12:18:46.084Z,99357.66
2022-10-19T12:19:58.643Z,99353.84
2022-10-19T12:21:08.489Z,99355.41
2022-10-19T12:22:21.034Z,99347.91
2022-10-19T12:23:41.355Z,99350.38
2022-10-19T12:24:43.438Z,99345.72
2022-10-19T12:25:46.594Z,99351.41
2022-10-19T12:26:51.091Z,99345.56
2022-10-19T12:27:54.084Z,99349.59
2022-10-19T12:29:22.256Z,99344.38
2022-10-19T12:30:24.959Z,99345.50
2022-10-19T12:31:29.992Z,99348.53
2022-10-19T12:32:47.227Z,99346.66
2022-10-19T12:34:22.454Z,99351.78
2022-10-19T12:35:53.295Z,99351.47
2022-10-19T12:37:15.302Z,99345.44
2022-10-19T12:38:45.935Z,99341.59
2022-10-19T12:40:11.692Z,99344.50
2022-10-19T12:41:57.746Z,99344.66
2022-10-19T12:43:17.128Z,99339.75
2022-10-19T12:44:37.822Z,99347.16
2022-10-19T12:45:41.362Z,99340.56
2022-10-19T12:47:06.685Z,99338.84
2022-10-19T12:48:08.327Z,99338.22
2022-10-19T12:49:30.244Z,99336.50
2022-10-19T12:50:50.544Z,99332.59
2022-10-19T12:51:53.992Z,99331.16
2022-10-19T12:52:55.742Z,99330.25
2022-10-19T12:54:09.558Z,99327.00
2022-10-19T12:55:34.689Z,99319.91
2022-10-19T12:56:53.560Z,99322.53
2022-10-19T12:58:04.360Z,99329.19
2022-10-19T12:59:29.060Z,99311.94
2022-10-19T13:00:36.041Z,99310.81
2022-10-19T13:01:37.720Z,99308.63
2022-10-19T13:02:41.503Z,99314.81
2022-10-19T13:03:46.864Z,99308.88
2022-10-19T13:04:54.213Z,99311.31
2022-10-19T13:06:04.903Z,99303.03
2022-10-19T13:07:09.074Z,99302.22
2022-10-19T13:08:38.786Z,99309.50
2022-10-19T13:09:46.902Z,99303.91
2022-10-19T13:11:14.387Z,99302.63
2022-10-19T13:12:19.797Z,99294.34
2022-10-19T13:13:52.096Z,99296.59
2022-10-19T13:15:04.840Z,99297.19
2022-10-19T13:16:29.343Z,99294.56
2022-10-19T13:17:34.464Z,99291.63
2022-10-19T13:18:59.757Z,99291.47
2022-10-19T13:20:13.818Z,99289.91
2022-10-19T13:21:50.721Z,99290.00
2022-10-19T13:23:03.453Z,99282.28
2022-10-19T13:25:47.199Z,99278.13
2022-10-19T13:27:08.890Z,99273.63
2022-10-19T13:28:10.692Z,99278.78
2022-10-19T13:29:27.193Z,99274.53
2022-10-19T13:30:37.738Z,99277.78
2022-10-19T13:31:39.945Z,99280.19